Dirección General De Aeronáutica Civil

Dirección Meteorológica de Chile - Servicios Climáticos

Informe General de Control de Calidad de la Estación

Listado de niveles de control de calidad para algunos parámetros
Estación Puerto Edén (490001)
Fecha de Revisión de los datos :

Elementos

Registros Niveles de Control Total
Nivel 0 Nivel 1 Nivel 2 Nivel 3 Errores Porcentaje
01 Temperatura del Aire Seco 1.441 0 . 0 . 0 . 0 . 0 0.00 %
02 Temperatura de Rocío 0 0 . 0 . 0 . 0 . 0 .
03 Humedad Relativa del Aire 0 0 . 0 . 0 . 0 . 0 .
04 Temperatura Máxima PM 364 0 . 0 . 21 5.77 % 0 . 21 5.77 %
05 Temperatura Mínima AM 359 0 . 0 . 45 12.53 % 0 . 45 12.53 %
06 Viento a 10 m. de Altura 1.441 0 . 0 . 0 . 0 . 0 0.00 %
07 Agua Caida, Acumulada 6 Horas 725 0 . 1 0.14 % 0 . 0 . 1 0.14 %
08 Presión Atm. a Nivel Medio del Mar (QFF) 1.441 0 . 0 . 0 . 0 . 0 0.00 %
09 Tiempo Pasado Sinóptico 718 0 . 0 . 0 . 0 . 0 0.00 %
10 Tiempo Presente Sinóptico 1.440 0 . 5 0.35 % 0 . 0 . 5 0.35 %

Totales

7.929 . 0.0000 % . 0.0757 % . 0.8324 % . 0.0000 % 72 0.9081 %

Detalle de Errores Encontrados

Nivel Fecha del Dato Descripción Información Error Fecha Ingreso
1 1952-03-18 12:00:00 ts > 3.0 y ( (ww >= 48 y ww <= 49) o (ww >= 56 y ww <= 57) o (ww >=66 y ww <= 67)) 66 2014-10-27 14:40:00
1 1952-03-27 12:00:00 ts > 5.0 y ((ww >= 70 y ww <= 79) || (ww >= 85 y ww <= 88))) 85 2014-10-27 15:55:00
1 1954-06-05 18:00:00 ts < -2.0 y ((ww >= 50 y ww <= 55) o (ww >= 58 y ww <= 65) o (ww >= 80 y $ww <= 82)) 50 2013-05-03 20:10:00
1 1954-06-18 18:00:00 ts > 5.0 y ((ww >= 70 y ww <= 79) || (ww >= 85 y ww <= 88))) 87 2013-05-06 17:06:00
1 1954-09-11 18:00:00 ts > 5.0 y ((ww >= 70 y ww <= 79) || (ww >= 85 y ww <= 88))) 87 2013-05-09 19:59:00
1 1954-05-23 12:00:00 rrr = 9.2 y WW = 3 w1=2 w2=2 9.2 2013-05-03 19:03:00
Errores del Nivel 6
Nivel Fecha del Dato Descripción Información Error Fecha Ingreso
2 1952-01-09 00:00:00 Temperatura 11.4 del 08-01-1952 18:00, Mayor que la Máxima 11.3 09-01-1952 00:00 11.4 -- 11.3 2014-10-28 13:29:00
2 1952-01-15 00:00:00 Temperatura 11.4 del 14-01-1952 18:00, Mayor que la Máxima 11.3 15-01-1952 00:00 11.4 -- 11.3 2014-10-28 13:29:00
2 1952-01-27 00:00:00 Temperatura 11.5 del 26-01-1952 18:00, Mayor que la Máxima 11.3 27-01-1952 00:00 11.5 -- 11.3 2014-10-28 13:29:00
2 1952-02-20 00:00:00 Temperatura 11.5 del 19-02-1952 18:00, Mayor que la Máxima 10.3 20-02-1952 00:00 11.5 -- 10.3 2014-10-28 14:10:00
2 1952-02-23 00:00:00 Temperatura 17.7 del 22-02-1952 23:00, Mayor que la Máxima 17.0 23-02-1952 00:00 17.7 -- 17.0 2014-10-28 14:24:00
2 1952-02-25 00:00:00 Temperatura 17.2 del 24-02-1952 23:00, Mayor que la Máxima 17.0 25-02-1952 00:00 17.2 -- 17.0 2014-10-28 14:24:00
2 1952-02-28 00:00:00 Temperatura 15.2 del 27-02-1952 23:00, Mayor que la Máxima 14.3 28-02-1952 00:00 15.2 -- 14.3 2014-10-28 14:24:00
2 1952-02-29 00:00:00 Temperatura 11.0 del 28-02-1952 23:00, Mayor que la Máxima 10.8 29-02-1952 00:00 11.0 -- 10.8 2014-10-28 14:24:00
2 1952-03-09 00:00:00 Temperatura 11.2 del 08-03-1952 18:00, Mayor que la Máxima 9.8 09-03-1952 00:00 11.2 -- 9.8 2014-10-28 14:50:00
2 1952-03-10 00:00:00 Temperatura 10.1 del 09-03-1952 18:00, Mayor que la Máxima 9.2 10-03-1952 00:00 10.1 -- 9.2 2014-10-28 14:50:00
2 1952-03-18 00:00:00 Temperatura 10.4 del 17-03-1952 23:00, Mayor que la Máxima 10.0 18-03-1952 00:00 10.4 -- 10.0 2014-10-28 14:57:00
2 1952-03-19 00:00:00 Temperatura 7.3 del 18-03-1952 18:00, Mayor que la Máxima 7.2 19-03-1952 00:00 7.3 -- 7.2 2014-10-28 14:57:00
2 1952-03-22 00:00:00 Temperatura 10.2 del 21-03-1952 18:00, Mayor que la Máxima 10.0 22-03-1952 00:00 10.2 -- 10.0 2014-10-28 14:57:00
2 1952-03-23 00:00:00 Temperatura 12.0 del 22-03-1952 23:00, Mayor que la Máxima 11.9 23-03-1952 00:00 12.0 -- 11.9 2014-10-28 14:57:00
2 1952-03-25 00:00:00 Temperatura 11.8 del 24-03-1952 18:00, Mayor que la Máxima 11.2 25-03-1952 00:00 11.8 -- 11.2 2014-10-28 14:57:00
2 1952-03-30 00:00:00 Temperatura 9.2 del 29-03-1952 23:00, Mayor que la Máxima 9.1 30-03-1952 00:00 9.2 -- 9.1 2014-10-28 14:57:00
2 1952-12-03 00:00:00 Temperatura 14.1 del 02-12-1952 23:00, Mayor que la Máxima 13.9 03-12-1952 00:00 14.1 -- 13.9 2014-10-28 20:10:00
2 1954-06-01 00:00:00 Temperatura 5.6 del 31-05-1954 18:00, Mayor que la Máxima 4.9 01-06-1954 00:00 5.6 -- 4.9 2013-05-07 15:54:00
2 1954-07-09 00:00:00 Temperatura 4.7 del 08-07-1954 18:00, Mayor que la Máxima 4.4 09-07-1954 00:00 4.7 -- 4.4 2013-05-09 21:53:00
2 1954-11-07 00:00:00 Temperatura 11.8 del 06-11-1954 18:00, Mayor que la Máxima 11.4 07-11-1954 00:00 11.8 -- 11.4 2013-05-17 16:28:00
2 1954-11-12 00:00:00 Temperatura 8.0 del 11-11-1954 18:00, Mayor que la Máxima 7.8 12-11-1954 00:00 8.0 -- 7.8 2013-05-17 17:05:00
2 1952-01-02 12:00:00 Temperatura 9.8 del 02-01-1952 10:00, Menor que la Mínima 10.3 02-01-1952 12:00 9.8 -- 10.3 2014-10-21 19:34:00
2 1952-01-03 12:00:00 Temperatura 8.8 del 03-01-1952 10:00, Menor que la Mínima 8.9 03-01-1952 12:00 8.8 -- 8.9 2014-10-21 19:55:00
2 1952-01-04 12:00:00 Temperatura 8.7 del 04-01-1952 10:00, Menor que la Mínima 9.1 04-01-1952 12:00 8.7 -- 9.1 2014-10-21 19:59:00
2 1952-01-06 12:00:00 Temperatura 8.7 del 06-01-1952 10:00, Menor que la Mínima 9.4 06-01-1952 12:00 8.7 -- 9.4 2014-10-21 20:12:00
2 1952-01-13 12:00:00 Temperatura 9.8 del 13-01-1952 10:00, Menor que la Mínima 10.1 13-01-1952 12:00 9.8 -- 10.1 2014-10-22 13:43:00
2 1952-01-15 12:00:00 Temperatura 7.8 del 15-01-1952 10:00, Menor que la Mínima 8.2 15-01-1952 12:00 7.8 -- 8.2 2014-10-22 13:49:00
2 1952-01-16 12:00:00 Temperatura 7.9 del 16-01-1952 10:00, Menor que la Mínima 8.3 16-01-1952 12:00 7.9 -- 8.3 2014-10-22 14:10:00
2 1952-01-19 12:00:00 Temperatura 7.8 del 19-01-1952 10:00, Menor que la Mínima 8.3 19-01-1952 12:00 7.8 -- 8.3 2014-10-22 14:42:00
2 1952-01-22 12:00:00 Temperatura 10.4 del 22-01-1952 10:00, Menor que la Mínima 11.1 22-01-1952 12:00 10.4 -- 11.1 2014-10-22 14:55:00
2 1952-01-23 12:00:00 Temperatura 8.1 del 23-01-1952 10:00, Menor que la Mínima 13.3 23-01-1952 12:00 8.1 -- 13.3 2014-10-22 14:58:00
2 1952-01-28 12:00:00 Temperatura 6.4 del 28-01-1952 10:00, Menor que la Mínima 6.5 28-01-1952 12:00 6.4 -- 6.5 2014-10-22 15:12:00
2 1952-02-04 12:00:00 Temperatura 8.7 del 04-02-1952 10:00, Menor que la Mínima 10.1 04-02-1952 12:00 8.7 -- 10.1 2014-10-22 17:31:00
2 1952-02-08 12:00:00 Temperatura 10.4 del 08-02-1952 10:00, Menor que la Mínima 11.0 08-02-1952 12:00 10.4 -- 11.0 2014-10-22 17:51:00
2 1952-02-11 12:00:00 Temperatura 11.1 del 11-02-1952 10:00, Menor que la Mínima 11.3 11-02-1952 12:00 11.1 -- 11.3 2014-10-22 17:59:00
2 1952-02-17 12:00:00 Temperatura 10.0 del 17-02-1952 10:00, Menor que la Mínima 10.2 17-02-1952 12:00 10.0 -- 10.2 2014-10-22 19:07:00
2 1952-02-19 12:00:00 Temperatura 10.3 del 19-02-1952 10:00, Menor que la Mínima 11.1 19-02-1952 12:00 10.3 -- 11.1 2014-10-22 19:16:00
2 1952-02-21 12:00:00 Temperatura 11.3 del 21-02-1952 10:00, Menor que la Mínima 12.0 21-02-1952 12:00 11.3 -- 12.0 2014-10-22 20:10:00
2 1952-02-23 12:00:00 Temperatura 11.0 del 23-02-1952 10:00, Menor que la Mínima 11.8 23-02-1952 12:00 11.0 -- 11.8 2014-10-22 20:17:00
2 1952-02-24 12:00:00 Temperatura 12.3 del 24-02-1952 12:00, Menor que la Mínima 17.0 24-02-1952 12:00 12.3 -- 17.0 2014-10-23 12:50:00
2 1952-02-28 12:00:00 Temperatura 6.8 del 28-02-1952 10:00, Menor que la Mínima 6.9 28-02-1952 12:00 6.8 -- 6.9 2014-10-24 19:16:00
2 1952-03-02 12:00:00 Temperatura 10.2 del 02-03-1952 10:00, Menor que la Mínima 10.3 02-03-1952 12:00 10.2 -- 10.3 2014-10-27 12:48:00
2 1952-03-05 12:00:00 Temperatura 10.8 del 05-03-1952 10:00, Menor que la Mínima 11.2 05-03-1952 12:00 10.8 -- 11.2 2014-10-27 12:57:00
2 1952-03-06 12:00:00 Temperatura 7.2 del 06-03-1952 10:00, Menor que la Mínima 7.4 06-03-1952 12:00 7.2 -- 7.4 2014-10-27 12:59:00
2 1952-03-17 12:00:00 Temperatura 5.9 del 17-03-1952 10:00, Menor que la Mínima 6.8 17-03-1952 12:00 5.9 -- 6.8 2014-10-27 14:39:00
2 1952-03-18 12:00:00 Temperatura 3.3 del 18-03-1952 10:00, Menor que la Mínima 3.4 18-03-1952 12:00 3.3 -- 3.4 2014-10-27 14:40:00
2 1952-03-21 12:00:00 Temperatura 5.3 del 21-03-1952 10:00, Menor que la Mínima 6.0 21-03-1952 12:00 5.3 -- 6.0 2014-10-27 15:03:00
2 1952-03-23 12:00:00 Temperatura 8.0 del 23-03-1952 10:00, Menor que la Mínima 10.2 23-03-1952 12:00 8.0 -- 10.2 2014-10-27 15:32:00
2 1952-03-25 12:00:00 Temperatura 3.9 del 25-03-1952 10:00, Menor que la Mínima 4.3 25-03-1952 12:00 3.9 -- 4.3 2014-10-27 15:40:00
2 1952-12-01 12:00:00 Temperatura 10.2 del 01-12-1952 10:00, Menor que la Mínima 14.1 01-12-1952 12:00 10.2 -- 14.1 2014-10-27 16:11:00
2 1952-12-06 12:00:00 Temperatura 7.0 del 06-12-1952 10:00, Menor que la Mínima 8.1 06-12-1952 12:00 7.0 -- 8.1 2014-10-27 18:00:00
2 1952-12-08 12:00:00 Temperatura 6.1 del 08-12-1952 10:00, Menor que la Mínima 6.2 08-12-1952 12:00 6.1 -- 6.2 2014-10-27 18:15:00
2 1952-12-09 12:00:00 Temperatura 7.2 del 09-12-1952 10:00, Menor que la Mínima 8.1 09-12-1952 12:00 7.2 -- 8.1 2014-10-27 18:18:00
2 1952-12-15 12:00:00 Temperatura 11.3 del 15-12-1952 12:00, Menor que la Mínima 12.4 15-12-1952 12:00 11.3 -- 12.4 2014-10-27 18:32:00
2 1952-12-20 12:00:00 Temperatura 10.9 del 20-12-1952 10:00, Menor que la Mínima 12.4 20-12-1952 12:00 10.9 -- 12.4 2014-10-27 19:29:00
2 1952-12-21 12:00:00 Temperatura 12.0 del 21-12-1952 10:00, Menor que la Mínima 12.3 21-12-1952 12:00 12.0 -- 12.3 2014-10-27 19:30:00
2 1952-12-25 12:00:00 Temperatura 8.1 del 25-12-1952 10:00, Menor que la Mínima 8.3 25-12-1952 12:00 8.1 -- 8.3 2014-10-27 19:43:00
2 1952-12-28 12:00:00 Temperatura 4.1 del 28-12-1952 10:00, Menor que la Mínima 4.3 28-12-1952 12:00 4.1 -- 4.3 2014-10-27 20:18:00
2 1952-12-30 12:00:00 Temperatura 5.0 del 30-12-1952 10:00, Menor que la Mínima 6.3 30-12-1952 12:00 5.0 -- 6.3 2014-10-28 12:39:00
2 1954-06-08 12:00:00 Temperatura -5.6 del 08-06-1954 12:00, Menor que la Mínima -5.4 08-06-1954 12:00 -5.6 -- -5.4 2013-05-03 20:18:00
2 1954-07-05 12:00:00 Temperatura 2.3 del 05-07-1954 10:00, Menor que la Mínima 3.4 05-07-1954 12:00 2.3 -- 3.4 2013-05-07 19:17:00
2 1954-07-15 12:00:00 Temperatura 0.0 del 15-07-1954 12:00, Menor que la Mínima 0.1 15-07-1954 12:00 0.0 -- 0.1 2013-05-07 20:06:00
2 1954-07-25 12:00:00 Temperatura 1.2 del 25-07-1954 10:00, Menor que la Mínima 1.4 25-07-1954 12:00 1.2 -- 1.4 2013-05-07 21:15:00
2 1954-08-07 12:00:00 Temperatura 2.9 del 07-08-1954 10:00, Menor que la Mínima 3.3 07-08-1954 12:00 2.9 -- 3.3 2013-05-08 15:25:00
2 1954-08-24 12:00:00 Temperatura 1.1 del 24-08-1954 10:00, Menor que la Mínima 1.3 24-08-1954 12:00 1.1 -- 1.3 2013-05-09 20:27:00
2 1954-10-08 12:00:00 Temperatura 3.7 del 08-10-1954 10:00, Menor que la Mínima 4.3 08-10-1954 12:00 3.7 -- 4.3 2013-05-13 21:08:00
Errores del Nivel 66
Informe generado el 23-02-2024 11:24
Requerimiento: RE6001